createdAt,value
2024-03-03T00:00:01.500Z,19.13
2024-03-03T00:01:04.047Z,17.50
2024-03-03T00:02:06.624Z,16.42
2024-03-03T00:03:08.915Z,16.80
2024-03-03T00:04:12.002Z,16.83
2024-03-03T00:05:14.687Z,16.30
2024-03-03T00:06:17.084Z,15.90
2024-03-03T00:07:19.332Z,16.30
2024-03-03T00:08:23.533Z,17.10
2024-03-03T00:09:25.854Z,19.85
2024-03-03T00:10:28.061Z,18.85
2024-03-03T00:11:30.320Z,18.40
2024-03-03T00:12:32.558Z,18.55
2024-03-03T00:13:34.728Z,16.88
2024-03-03T00:14:36.965Z,21.48
2024-03-03T00:15:39.316Z,19.05
2024-03-03T00:16:44.764Z,19.38
2024-03-03T00:17:47.135Z,18.85
2024-03-03T00:18:49.350Z,19.88
2024-03-03T00:19:51.603Z,19.50
2024-03-03T00:20:53.808Z,21.88
2024-03-03T00:21:56.192Z,22.60
2024-03-03T00:22:58.382Z,18.50
2024-03-03T00:24:00.896Z,18.42
2024-03-03T00:25:03.982Z,20.52
2024-03-03T00:26:06.196Z,24.55
2024-03-03T00:27:08.489Z,22.65
2024-03-03T00:28:11.362Z,22.45
2024-03-03T00:29:15.501Z,21.55
2024-03-03T00:30:17.725Z,17.15
2024-03-03T00:31:20.315Z,22.45
2024-03-03T00:32:22.620Z,21.35
2024-03-03T00:33:25.099Z,24.60
2024-03-03T00:34:27.331Z,23.08
2024-03-03T00:35:29.610Z,20.45
2024-03-03T00:36:31.764Z,23.35
2024-03-03T00:37:33.977Z,20.77
2024-03-03T00:38:37.501Z,22.05
2024-03-03T00:39:39.718Z,17.15
2024-03-03T00:40:42.253Z,21.20
2024-03-03T00:41:44.467Z,22.00
2024-03-03T00:42:46.707Z,23.23
2024-03-03T00:43:48.932Z,23.52
2024-03-03T00:44:51.155Z,20.85
2024-03-03T00:45:53.364Z,22.48
2024-03-03T00:46:55.643Z,19.88
2024-03-03T00:47:58.005Z,21.63
2024-03-03T00:49:00.260Z,26.55
2024-03-03T00:50:02.601Z,22.60
2024-03-03T00:51:04.897Z,22.48
2024-03-03T00:52:07.190Z,24.20
2024-03-03T00:53:10.097Z,26.83
2024-03-03T00:54:12.415Z,23.13
2024-03-03T00:55:14.721Z,23.08
2024-03-03T00:56:16.910Z,24.02
2024-03-03T00:57:19.558Z,20.75
2024-03-03T00:58:21.995Z,22.45
2024-03-03T00:59:24.720Z,22.05
2024-03-03T01:00:26.906Z,23.25
2024-03-03T01:01:29.153Z,20.60
2024-03-03T01:02:31.366Z,23.52
2024-03-03T01:03:33.615Z,23.65
2024-03-03T01:04:35.959Z,24.58
2024-03-03T01:05:38.115Z,22.35
2024-03-03T01:06:40.320Z,22.17
2024-03-03T01:07:43.481Z,26.13
2024-03-03T01:08:45.915Z,25.63
2024-03-03T01:09:48.177Z,25.33
2024-03-03T01:10:50.769Z,22.88
2024-03-03T01:11:55.279Z,24.73
2024-03-03T01:12:57.896Z,24.42
2024-03-03T01:14:00.168Z,25.20
2024-03-03T01:15:02.360Z,25.30
2024-03-03T01:16:05.246Z,23.08
2024-03-03T01:17:07.596Z,20.77
2024-03-03T01:18:09.824Z,24.25
2024-03-03T01:19:12.087Z,28.88
2024-03-03T01:20:14.611Z,26.65
2024-03-03T01:21:16.976Z,27.90
2024-03-03T01:22:19.331Z,22.65
2024-03-03T01:23:21.608Z,26.05
2024-03-03T01:24:23.942Z,27.25
2024-03-03T01:25:27.722Z,27.15
2024-03-03T01:26:30.067Z,24.85
2024-03-03T01:27:32.330Z,25.33
2024-03-03T01:28:34.530Z,29.13
2024-03-03T01:29:36.711Z,24.30
2024-03-03T01:30:38.995Z,23.25
2024-03-03T01:31:42.670Z,28.10
2024-03-03T01:32:44.915Z,25.98
2024-03-03T01:33:47.235Z,25.40
2024-03-03T01:34:50.441Z,25.88
2024-03-03T01:35:52.708Z,24.42
2024-03-03T01:36:55.032Z,24.10
2024-03-03T01:37:57.295Z,25.80
2024-03-03T01:38:59.492Z,29.13
2024-03-03T01:40:01.900Z,25.73
2024-03-03T01:41:04.682Z,23.70
2024-03-03T01:42:06.868Z,27.33
2024-03-03T01:43:09.109Z,25.48
2024-03-03T01:44:11.349Z,25.55
2024-03-03T01:45:22.452Z,25.60
2024-03-03T01:46:25.504Z,27.00
2024-03-03T01:47:27.934Z,25.00
2024-03-03T01:48:30.842Z,26.10
2024-03-03T01:49:36.625Z,29.13
2024-03-03T01:50:40.125Z,36.08
2024-03-03T01:51:43.272Z,24.73
2024-03-03T01:52:47.746Z,29.55
2024-03-03T01:53:52.268Z,23.00
2024-03-03T01:54:54.679Z,26.42
2024-03-03T01:55:58.148Z,26.58
2024-03-03T01:57:00.787Z,22.85
2024-03-03T01:58:04.626Z,24.13
2024-03-03T01:59:09.941Z,27.65
2024-03-03T02:00:12.783Z,24.20
2024-03-03T02:01:16.564Z,29.92
2024-03-03T02:02:19.102Z,29.73
2024-03-03T02:03:21.563Z,28.27
2024-03-03T02:04:24.742Z,28.27
2024-03-03T02:05:28.310Z,34.35
2024-03-03T02:06:34.994Z,26.73
2024-03-03T02:07:37.247Z,25.30
2024-03-03T02:08:39.785Z,25.38
2024-03-03T02:09:45.563Z,27.48
2024-03-03T02:10:48.335Z,25.58
2024-03-03T02:11:50.600Z,30.20
2024-03-03T02:12:53.062Z,28.85
2024-03-03T02:13:55.976Z,27.63
2024-03-03T02:14:58.230Z,26.25
2024-03-03T02:16:00.794Z,28.17
2024-03-03T02:17:03.046Z,29.00
2024-03-03T02:18:05.460Z,30.05
2024-03-03T02:19:08.018Z,26.33
2024-03-03T02:20:10.878Z,28.38
2024-03-03T02:21:13.471Z,24.88
2024-03-03T02:22:15.977Z,26.13
2024-03-03T02:23:18.257Z,33.08
2024-03-03T02:24:20.442Z,25.98
2024-03-03T02:25:23.004Z,27.42
2024-03-03T02:26:27.261Z,29.77
2024-03-03T02:27:29.811Z,29.70
2024-03-03T02:28:32.697Z,25.02
2024-03-03T02:29:35.075Z,28.38
2024-03-03T02:30:37.538Z,29.15
2024-03-03T02:31:39.760Z,29.27
2024-03-03T02:32:42.006Z,26.80
2024-03-03T02:33:44.482Z,27.58
2024-03-03T02:34:46.674Z,29.33
2024-03-03T02:35:48.868Z,31.38
2024-03-03T02:36:51.138Z,32.50
2024-03-03T02:37:53.382Z,27.25
2024-03-03T02:38:58.279Z,31.42
2024-03-03T02:40:00.656Z,28.90
2024-03-03T02:41:02.921Z,28.17
2024-03-03T02:42:05.120Z,25.45
2024-03-03T02:43:09.490Z,26.25
2024-03-03T02:44:11.954Z,29.65
2024-03-03T02:45:14.198Z,27.35
2024-03-03T02:46:16.476Z,25.77
2024-03-03T02:47:18.712Z,27.55
2024-03-03T02:48:20.944Z,28.80
2024-03-03T02:49:23.285Z,26.38
2024-03-03T02:50:25.504Z,32.50
2024-03-03T02:51:28.034Z,28.67
2024-03-03T02:52:30.240Z,27.95
2024-03-03T02:53:32.527Z,31.42
2024-03-03T02:54:34.762Z,29.00
2024-03-03T02:55:36.962Z,31.95
2024-03-03T02:56:39.270Z,30.98
2024-03-03T02:57:43.295Z,28.70
2024-03-03T02:58:45.874Z,32.55
2024-03-03T02:59:48.109Z,32.90
2024-03-03T03:00:50.574Z,34.45
2024-03-03T03:01:53.107Z,29.30
2024-03-03T03:02:55.416Z,29.10
2024-03-03T03:03:57.821Z,27.38
2024-03-03T03:05:00.124Z,30.27
2024-03-03T03:06:02.368Z,35.38
2024-03-03T03:07:04.903Z,30.13
2024-03-03T03:08:07.532Z,26.15
2024-03-03T03:09:09.768Z,30.33
2024-03-03T03:10:12.009Z,32.67
2024-03-03T03:11:15.372Z,33.15
2024-03-03T03:12:17.582Z,30.50
2024-03-03T03:13:20.437Z,32.95
2024-03-03T03:14:25.213Z,29.85
2024-03-03T03:15:27.462Z,29.48
2024-03-03T03:16:29.674Z,25.92
2024-03-03T03:17:32.376Z,34.08
2024-03-03T03:18:34.641Z,28.80
2024-03-03T03:19:36.902Z,31.40
2024-03-03T03:20:39.112Z,30.90
2024-03-03T03:21:41.324Z,34.72
2024-03-03T03:22:43.615Z,31.88
2024-03-03T03:23:45.818Z,31.52
2024-03-03T03:24:48.030Z,30.40
2024-03-03T03:25:50.478Z,31.45
2024-03-03T03:26:52.661Z,36.53
2024-03-03T03:27:54.896Z,30.30
2024-03-03T03:28:57.195Z,29.60
2024-03-03T03:29:59.486Z,30.95
2024-03-03T03:31:02.161Z,34.50
2024-03-03T03:32:04.728Z,32.83
2024-03-03T03:33:08.255Z,31.38
2024-03-03T03:34:13.621Z,32.92
2024-03-03T03:35:16.028Z,31.02
2024-03-03T03:36:19.292Z,35.00
2024-03-03T03:37:21.558Z,36.38
2024-03-03T03:38:23.863Z,31.67
2024-03-03T03:39:26.273Z,31.73
2024-03-03T03:40:29.945Z,34.42
2024-03-03T03:41:32.235Z,32.35
2024-03-03T03:42:34.399Z,33.90
2024-03-03T03:43:36.581Z,38.15
2024-03-03T03:44:38.846Z,38.33
2024-03-03T03:45:41.156Z,34.83
2024-03-03T03:46:43.746Z,35.33
2024-03-03T03:47:46.441Z,30.30
2024-03-03T03:48:48.656Z,33.60
2024-03-03T03:49:50.825Z,35.78
2024-03-03T03:50:53.648Z,33.85
2024-03-03T03:51:56.758Z,35.53
2024-03-03T03:52:59.044Z,30.73
2024-03-03T03:54:01.242Z,32.03
2024-03-03T03:55:04.085Z,33.92
2024-03-03T03:56:06.954Z,37.42
2024-03-03T03:57:09.273Z,34.28
2024-03-03T03:58:11.503Z,36.63
2024-03-03T03:59:13.744Z,29.92
2024-03-03T04:00:16.463Z,35.65
2024-03-03T04:01:20.831Z,34.65
2024-03-03T04:02:23.174Z,34.53
2024-03-03T04:03:25.381Z,32.58
2024-03-03T04:04:28.256Z,35.25
2024-03-03T04:05:30.437Z,33.17
2024-03-03T04:06:32.629Z,38.28
2024-03-03T04:07:34.773Z,36.50
2024-03-03T04:08:36.971Z,36.13
2024-03-03T04:09:40.765Z,37.63
2024-03-03T04:10:43.087Z,29.67
2024-03-03T04:11:45.415Z,36.15
2024-03-03T04:12:47.690Z,31.00
2024-03-03T04:13:51.331Z,30.92
2024-03-03T04:14:53.550Z,31.35
2024-03-03T04:15:55.858Z,34.55
2024-03-03T04:16:58.158Z,31.38
2024-03-03T04:18:00.510Z,32.67
2024-03-03T04:19:02.917Z,34.58
2024-03-03T04:20:06.515Z,41.10
2024-03-03T04:21:08.891Z,31.13
2024-03-03T04:22:11.572Z,36.83
2024-03-03T04:23:13.755Z,31.48
2024-03-03T04:24:15.946Z,34.85
2024-03-03T04:25:18.262Z,35.15
2024-03-03T04:26:20.654Z,35.75
2024-03-03T04:27:22.950Z,40.20
2024-03-03T04:28:25.209Z,32.35
2024-03-03T04:29:27.391Z,34.83
2024-03-03T04:30:29.583Z,36.95
2024-03-03T04:31:31.848Z,33.00
2024-03-03T04:32:34.264Z,38.42
2024-03-03T04:33:37.698Z,40.42
2024-03-03T04:34:41.279Z,40.25
2024-03-03T04:35:43.911Z,39.38
2024-03-03T04:36:46.612Z,35.30
2024-03-03T04:37:48.994Z,35.13
2024-03-03T04:38:51.222Z,42.75
2024-03-03T04:39:53.615Z,35.30
2024-03-03T04:40:55.810Z,35.85
2024-03-03T04:41:58.193Z,32.70
2024-03-03T04:43:00.393Z,38.97
2024-03-03T04:44:02.938Z,38.47
2024-03-03T04:45:07.277Z,37.08
2024-03-03T04:46:10.514Z,40.30
2024-03-03T04:47:12.773Z,35.28
2024-03-03T04:48:14.977Z,40.97
2024-03-03T04:49:17.452Z,37.05
2024-03-03T04:50:20.336Z,35.80
2024-03-03T04:51:22.506Z,39.22
2024-03-03T04:52:24.793Z,37.30
2024-03-03T04:53:27.016Z,36.53
2024-03-03T04:54:29.247Z,41.30
2024-03-03T04:55:31.570Z,39.95
2024-03-03T04:56:34.001Z,34.20
2024-03-03T04:57:36.380Z,39.75
2024-03-03T04:58:38.686Z,33.08
2024-03-03T04:59:41.223Z,32.97
2024-03-03T05:00:44.076Z,31.90
2024-03-03T05:01:46.412Z,37.28
2024-03-03T05:02:49.197Z,36.00
2024-03-03T05:03:51.517Z,39.28
2024-03-03T05:04:53.718Z,42.90
2024-03-03T05:05:55.906Z,34.45
2024-03-03T05:06:58.119Z,39.55
2024-03-03T05:08:00.292Z,38.50
2024-03-03T05:09:03.692Z,41.10
2024-03-03T05:10:07.969Z,39.22
2024-03-03T05:11:10.319Z,38.33
2024-03-03T05:12:12.506Z,34.90
2024-03-03T05:13:14.717Z,32.05
2024-03-03T05:14:16.972Z,35.90
2024-03-03T05:15:19.295Z,41.97
2024-03-03T05:16:21.538Z,38.20
2024-03-03T05:17:24.305Z,40.42
2024-03-03T05:18:26.527Z,36.58
2024-03-03T05:19:29.656Z,38.40
2024-03-03T05:20:31.950Z,38.05
2024-03-03T05:21:34.143Z,41.13
2024-03-03T05:22:37.561Z,41.00
2024-03-03T05:23:39.763Z,49.95
2024-03-03T05:24:42.007Z,35.35
2024-03-03T05:25:44.472Z,33.00
2024-03-03T05:26:46.660Z,39.53
2024-03-03T05:27:48.837Z,42.40
2024-03-03T05:28:51.760Z,38.47
2024-03-03T05:29:54.021Z,40.22
2024-03-03T05:30:56.271Z,38.33
2024-03-03T05:31:58.469Z,36.92
2024-03-03T05:33:00.688Z,37.10
2024-03-03T05:34:05.016Z,38.60
2024-03-03T05:35:07.494Z,35.95
2024-03-03T05:36:09.734Z,35.80
2024-03-03T05:37:12.498Z,40.35
2024-03-03T05:38:16.306Z,36.53
2024-03-03T05:39:18.695Z,44.35
2024-03-03T05:40:21.589Z,42.17
2024-03-03T05:41:30.511Z,39.80
2024-03-03T05:42:32.818Z,43.85
2024-03-03T05:43:35.178Z,38.67
2024-03-03T05:44:37.411Z,41.63
2024-03-03T05:45:39.618Z,41.75
2024-03-03T05:46:41.797Z,42.95
2024-03-03T05:47:44.153Z,42.30
2024-03-03T05:48:46.369Z,44.50
2024-03-03T05:49:48.577Z,42.47
2024-03-03T05:50:50.759Z,43.85
2024-03-03T05:51:53.145Z,40.15
2024-03-03T05:52:55.295Z,40.50
2024-03-03T05:53:57.460Z,49.30
2024-03-03T05:54:59.868Z,41.28
2024-03-03T05:56:02.082Z,39.78
2024-03-03T05:57:04.517Z,47.63
2024-03-03T05:58:06.847Z,59.30
2024-03-03T05:59:09.135Z,41.38
2024-03-03T06:00:12.132Z,44.45
2024-03-03T06:01:14.633Z,43.20
2024-03-03T06:02:16.943Z,50.75
2024-03-03T06:03:19.121Z,47.95
2024-03-03T06:04:21.428Z,39.55
2024-03-03T06:05:23.624Z,49.67
2024-03-03T06:06:26.121Z,40.22
2024-03-03T06:07:28.423Z,43.85
2024-03-03T06:08:31.074Z,50.03
2024-03-03T06:09:33.394Z,48.90
2024-03-03T06:10:35.634Z,42.70
2024-03-03T06:11:38.641Z,51.15
2024-03-03T06:12:40.849Z,44.05
2024-03-03T06:13:43.065Z,44.47
2024-03-03T06:14:48.660Z,43.17
2024-03-03T06:15:50.909Z,38.10
2024-03-03T06:16:54.030Z,44.17
2024-03-03T06:17:56.431Z,44.15
2024-03-03T06:18:58.648Z,44.55
2024-03-03T06:20:00.911Z,45.05
2024-03-03T06:21:03.268Z,43.53
2024-03-03T06:22:05.518Z,51.70
2024-03-03T06:23:07.701Z,45.40
2024-03-03T06:24:11.360Z,47.20
2024-03-03T06:25:13.835Z,48.30
2024-03-03T06:26:16.446Z,37.95
2024-03-03T06:27:18.744Z,41.30
2024-03-03T06:28:21.195Z,42.10
2024-03-03T06:29:23.508Z,38.67
2024-03-03T06:30:26.025Z,41.50
2024-03-03T06:31:28.223Z,45.97
2024-03-03T06:32:31.136Z,47.55
2024-03-03T06:33:33.595Z,45.08
2024-03-03T06:34:35.817Z,42.95
2024-03-03T06:35:38.116Z,46.63
2024-03-03T06:36:40.567Z,38.25
2024-03-03T06:37:44.203Z,50.45
2024-03-03T06:38:46.948Z,50.90
2024-03-03T06:39:50.070Z,43.95
2024-03-03T06:40:52.352Z,53.47
2024-03-03T06:41:54.619Z,45.92
2024-03-03T06:42:56.880Z,44.85
2024-03-03T06:43:59.159Z,41.30
2024-03-03T06:45:01.633Z,50.90
2024-03-03T06:46:04.249Z,51.80
2024-03-03T06:47:06.485Z,49.28
2024-03-03T06:48:08.758Z,43.92
2024-03-03T06:49:11.052Z,44.95
2024-03-03T06:50:13.596Z,42.88
2024-03-03T06:51:15.881Z,48.92
2024-03-03T06:52:18.118Z,41.33
2024-03-03T06:53:20.418Z,49.83
2024-03-03T06:54:22.605Z,42.47
2024-03-03T06:55:26.883Z,41.17
2024-03-03T06:56:30.659Z,44.13
2024-03-03T06:57:32.874Z,44.20
2024-03-03T06:58:35.092Z,44.63
2024-03-03T06:59:39.294Z,43.45
2024-03-03T07:00:41.624Z,43.55
2024-03-03T07:01:43.930Z,43.33
2024-03-03T07:03:03.884Z,44.58
2024-03-03T07:04:15.113Z,43.45
2024-03-03T07:05:18.198Z,40.97
2024-03-03T07:06:20.364Z,38.95
2024-03-03T07:07:22.641Z,40.47
2024-03-03T07:08:24.910Z,37.35
2024-03-03T07:09:27.171Z,35.58
2024-03-03T07:10:31.158Z,37.35
2024-03-03T07:11:33.456Z,30.50
2024-03-03T07:12:35.633Z,35.80
2024-03-03T07:13:37.814Z,35.80
2024-03-03T07:14:43.563Z,33.65
2024-03-03T07:15:46.225Z,33.28
2024-03-03T07:16:49.079Z,27.88
2024-03-03T07:17:51.343Z,35.05
2024-03-03T07:18:53.572Z,32.92
2024-03-03T07:19:55.855Z,33.53
2024-03-03T07:20:58.049Z,36.28
2024-03-03T07:22:00.215Z,33.15
2024-03-03T07:23:02.428Z,36.45
2024-03-03T07:24:05.162Z,39.03
2024-03-03T07:25:08.071Z,31.00
2024-03-03T07:26:10.349Z,32.85
2024-03-03T07:27:12.529Z,28.40
2024-03-03T07:28:14.740Z,28.75
2024-03-03T07:29:17.020Z,35.35
2024-03-03T07:30:21.678Z,29.35
2024-03-03T07:31:25.501Z,35.10
2024-03-03T07:32:29.866Z,34.22
2024-03-03T07:33:32.695Z,33.13
2024-03-03T07:34:34.887Z,31.00
2024-03-03T07:35:37.106Z,38.65
2024-03-03T07:36:39.284Z,31.08
2024-03-03T07:37:41.633Z,30.30
2024-03-03T07:38:43.824Z,26.52
2024-03-03T07:39:46.283Z,32.22
2024-03-03T07:40:48.528Z,39.22
2024-03-03T07:41:52.747Z,32.53
2024-03-03T07:42:55.692Z,32.38
2024-03-03T07:43:57.958Z,29.98
2024-03-03T07:45:00.294Z,31.17
2024-03-03T07:46:02.594Z,29.98
2024-03-03T07:47:04.885Z,31.35
2024-03-03T07:48:07.803Z,30.02
2024-03-03T07:49:10.109Z,27.83
2024-03-03T07:50:12.898Z,35.28
2024-03-03T07:51:15.259Z,30.92
2024-03-03T07:52:17.551Z,32.33
2024-03-03T07:53:19.875Z,28.30
2024-03-03T07:54:22.055Z,31.08
2024-03-03T07:55:24.609Z,30.13
2024-03-03T07:56:27.691Z,31.63
2024-03-03T07:57:29.905Z,33.13
2024-03-03T07:58:38.040Z,33.67
2024-03-03T07:59:40.604Z,33.17
2024-03-03T08:00:43.666Z,33.95
2024-03-03T08:01:46.103Z,34.25
2024-03-03T08:02:48.323Z,30.08
2024-03-03T08:03:51.608Z,32.03
2024-03-03T08:04:56.007Z,37.35
2024-03-03T08:05:58.798Z,28.80
2024-03-03T08:07:01.068Z,32.80
2024-03-03T08:08:05.340Z,27.00
2024-03-03T08:09:07.533Z,25.30
2024-03-03T08:10:09.939Z,25.85
2024-03-03T08:11:12.205Z,27.80
2024-03-03T08:12:14.419Z,25.83
2024-03-03T08:13:16.703Z,26.90
2024-03-03T08:14:18.959Z,25.98
2024-03-03T08:15:22.001Z,27.95
2024-03-03T08:16:24.266Z,32.30
2024-03-03T08:17:26.493Z,30.15
2024-03-03T08:18:28.734Z,25.40
2024-03-03T08:19:30.968Z,24.73
2024-03-03T08:20:33.247Z,29.48
2024-03-03T08:21:35.450Z,26.50
2024-03-03T08:22:41.876Z,27.10
2024-03-03T08:23:44.442Z,31.70
2024-03-03T08:24:46.650Z,27.83
2024-03-03T08:25:49.009Z,28.23
2024-03-03T08:26:51.278Z,27.77
2024-03-03T08:28:02.474Z,25.08
2024-03-03T08:29:04.829Z,29.38
2024-03-03T08:30:10.117Z,24.50
2024-03-03T08:31:13.032Z,23.85
2024-03-03T08:32:15.288Z,27.48
2024-03-03T08:33:17.562Z,28.05
2024-03-03T08:34:19.796Z,28.05
2024-03-03T08:35:22.048Z,26.88
2024-03-03T08:36:24.540Z,26.17
2024-03-03T08:37:27.492Z,22.88
2024-03-03T08:38:31.066Z,24.65
2024-03-03T08:39:33.406Z,21.45
2024-03-03T08:40:35.709Z,23.67
2024-03-03T08:41:41.728Z,27.17
2024-03-03T08:42:43.981Z,27.45
2024-03-03T08:43:46.661Z,23.83
2024-03-03T08:44:48.910Z,23.80
2024-03-03T08:45:51.230Z,22.92
2024-03-03T08:46:53.550Z,21.40
2024-03-03T08:47:55.779Z,23.92
2024-03-03T08:48:58.057Z,22.63
2024-03-03T08:50:00.263Z,25.30
2024-03-03T08:51:07.571Z,27.65
2024-03-03T08:52:10.214Z,22.38
2024-03-03T08:53:12.412Z,22.77
2024-03-03T08:54:14.579Z,21.58
2024-03-03T08:55:17.321Z,21.42
2024-03-03T08:56:19.644Z,27.05
2024-03-03T08:57:23.876Z,25.95
2024-03-03T08:58:27.486Z,20.85
2024-03-03T08:59:29.734Z,24.05
2024-03-03T09:00:32.080Z,22.30
2024-03-03T09:01:34.443Z,23.77
2024-03-03T09:02:37.154Z,26.02
2024-03-03T09:03:39.406Z,25.30
2024-03-03T09:04:41.783Z,24.23
2024-03-03T09:05:44.011Z,22.58
2024-03-03T09:06:46.226Z,20.48
2024-03-03T09:07:48.682Z,24.67
2024-03-03T09:08:51.387Z,23.98
2024-03-03T09:09:53.662Z,26.65
2024-03-03T09:11:02.302Z,27.38
2024-03-03T09:12:04.908Z,21.88
2024-03-03T09:13:07.238Z,24.75
2024-03-03T09:14:09.708Z,21.08
2024-03-03T09:15:12.026Z,27.98
2024-03-03T09:16:14.538Z,20.27
2024-03-03T09:17:16.772Z,23.95
2024-03-03T09:18:19.053Z,22.00
2024-03-03T09:19:21.366Z,23.05
2024-03-03T09:20:23.598Z,28.80
2024-03-03T09:21:25.820Z,20.80
2024-03-03T09:22:28.183Z,25.85
2024-03-03T09:23:33.516Z,21.40
2024-03-03T09:24:35.759Z,27.23
2024-03-03T09:25:37.996Z,19.52
2024-03-03T09:26:41.637Z,21.42
2024-03-03T09:27:43.990Z,21.20
2024-03-03T09:28:46.379Z,21.80
2024-03-03T09:29:48.624Z,23.30
2024-03-03T09:30:50.889Z,24.63
2024-03-03T09:31:54.093Z,22.50
2024-03-03T09:32:56.452Z,20.23
2024-03-03T09:33:58.805Z,19.52
2024-03-03T09:35:01.076Z,18.08
2024-03-03T09:36:03.602Z,20.75
2024-03-03T09:37:05.965Z,18.67
2024-03-03T09:38:08.979Z,21.10
2024-03-03T09:39:11.144Z,19.50
2024-03-03T09:40:17.771Z,20.20
2024-03-03T09:41:20.305Z,21.10
2024-03-03T09:42:22.489Z,21.10
2024-03-03T09:43:28.842Z,21.80
2024-03-03T09:44:43.747Z,19.23
2024-03-03T09:45:49.037Z,21.70
2024-03-03T09:46:54.086Z,19.17
2024-03-03T09:47:57.112Z,23.65
2024-03-03T09:48:59.612Z,22.42
2024-03-03T09:50:03.639Z,21.55
2024-03-03T09:51:06.188Z,19.58
2024-03-03T09:52:13.231Z,19.40
2024-03-03T09:53:16.452Z,18.23
2024-03-03T09:54:19.709Z,17.48
2024-03-03T09:55:23.571Z,18.35
2024-03-03T09:56:27.739Z,21.48
2024-03-03T09:57:33.899Z,24.02
2024-03-03T09:58:36.148Z,18.52
2024-03-03T09:59:39.384Z,18.85
2024-03-03T10:00:42.235Z,19.30
2024-03-03T10:01:52.358Z,21.35
2024-03-03T10:02:56.894Z,25.00
2024-03-03T10:04:01.002Z,19.63
2024-03-03T10:05:05.715Z,20.70
2024-03-03T10:06:11.631Z,20.27
2024-03-03T10:07:24.181Z,23.75
2024-03-03T10:08:28.616Z,21.42
2024-03-03T10:09:32.487Z,21.52
2024-03-03T10:10:37.380Z,21.15
2024-03-03T10:11:42.486Z,18.08
2024-03-03T10:12:47.561Z,17.05
2024-03-03T10:13:50.672Z,17.52
2024-03-03T10:14:56.757Z,18.27
2024-03-03T10:16:02.373Z,17.73
2024-03-03T10:17:05.038Z,19.88
2024-03-03T10:18:09.528Z,21.42
2024-03-03T10:19:11.876Z,18.90
2024-03-03T10:20:14.147Z,22.98
2024-03-03T10:21:16.842Z,20.35
2024-03-03T10:22:20.508Z,21.50
2024-03-03T10:23:23.498Z,18.70
2024-03-03T10:24:27.438Z,20.15
2024-03-03T10:25:31.447Z,20.42
2024-03-03T10:26:36.924Z,19.23
2024-03-03T10:27:42.193Z,22.10
2024-03-03T10:29:03.899Z,19.48
2024-03-03T10:30:08.715Z,19.25
2024-03-03T10:31:13.061Z,19.17
2024-03-03T10:32:16.122Z,18.88
2024-03-03T10:33:19.268Z,19.75
2024-03-03T10:34:24.463Z,24.10
2024-03-03T10:35:26.689Z,21.20
2024-03-03T10:36:30.235Z,22.50
2024-03-03T10:37:32.512Z,21.70
2024-03-03T10:38:34.691Z,21.88
2024-03-03T10:39:39.636Z,19.95
2024-03-03T10:40:45.394Z,22.98
2024-03-03T10:41:47.589Z,25.27
2024-03-03T10:42:50.831Z,24.65
2024-03-03T10:45:16.030Z,27.55
2024-03-03T10:46:21.825Z,23.67
2024-03-03T10:47:24.570Z,23.05
2024-03-03T10:48:26.898Z,21.25
2024-03-03T10:49:29.674Z,23.20
2024-03-03T10:50:33.126Z,24.52
2024-03-03T10:51:36.519Z,24.60
2024-03-03T10:52:42.568Z,20.60
2024-03-03T10:53:44.973Z,22.90
2024-03-03T10:54:47.697Z,23.38
2024-03-03T10:55:50.345Z,22.10
2024-03-03T10:56:53.206Z,22.85
2024-03-03T10:57:57.060Z,24.98
2024-03-03T10:59:00.384Z,25.38
2024-03-03T11:00:05.048Z,23.35
2024-03-03T11:01:08.837Z,23.42
2024-03-03T11:02:13.531Z,24.75
2024-03-03T11:03:17.150Z,24.20
2024-03-03T11:04:20.563Z,21.88
2024-03-03T11:05:24.350Z,25.45
2024-03-03T11:06:27.213Z,23.45
2024-03-03T11:07:30.861Z,23.95
2024-03-03T11:08:33.700Z,24.88
2024-03-03T11:09:36.686Z,21.67
2024-03-03T11:10:39.185Z,22.00
2024-03-03T11:11:46.310Z,24.95
2024-03-03T11:12:51.187Z,22.98
2024-03-03T11:14:13.024Z,24.73
2024-03-03T11:15:19.908Z,24.05
2024-03-03T11:16:27.159Z,26.70
2024-03-03T11:17:33.360Z,25.33
2024-03-03T11:18:39.136Z,25.02
2024-03-03T11:19:48.936Z,27.00
2024-03-03T11:20:56.480Z,22.73
2024-03-03T11:22:04.084Z,22.25
2024-03-03T11:23:26.817Z,26.02
2024-03-03T11:24:31.473Z,26.77
2024-03-03T11:25:40.544Z,25.30
2024-03-03T11:26:48.130Z,26.38
2024-03-03T11:27:57.107Z,27.65
2024-03-03T11:29:00.516Z,26.58
2024-03-03T11:30:03.211Z,30.00
2024-03-03T11:31:05.868Z,28.60
2024-03-03T11:32:09.632Z,29.65
2024-03-03T11:33:12.904Z,28.02
2024-03-03T11:34:16.373Z,29.83
2024-03-03T11:35:19.678Z,28.10
2024-03-03T11:36:23.157Z,28.67
2024-03-03T11:37:27.278Z,28.65
2024-03-03T11:38:45.770Z,30.13
2024-03-03T11:39:59.614Z,29.42
2024-03-03T11:41:02.308Z,35.15
2024-03-03T11:42:29.312Z,31.00
2024-03-03T11:43:34.798Z,28.60
2024-03-03T11:44:37.334Z,29.63
2024-03-03T11:45:49.117Z,33.92
2024-03-03T11:46:51.446Z,30.70
2024-03-03T11:47:53.679Z,27.13
2024-03-03T11:49:00.605Z,30.27
2024-03-03T11:50:17.745Z,27.38
2024-03-03T11:51:27.161Z,27.88
2024-03-03T11:52:43.215Z,27.92
2024-03-03T11:53:58.397Z,30.17
2024-03-03T11:55:00.600Z,28.38
2024-03-03T11:56:02.790Z,28.65
2024-03-03T11:57:10.257Z,27.33
2024-03-03T11:58:19.153Z,30.27
2024-03-03T11:59:25.927Z,31.73
2024-03-03T12:00:29.644Z,27.48
2024-03-03T12:01:35.013Z,27.65
2024-03-03T12:02:39.582Z,30.65
2024-03-03T12:03:42.615Z,30.13
2024-03-03T12:04:47.721Z,31.95
2024-03-03T12:05:51.152Z,32.45
2024-03-03T12:06:53.407Z,28.33
2024-03-03T12:07:57.104Z,30.60
2024-03-03T12:09:04.112Z,31.92
2024-03-03T12:10:17.578Z,33.22
2024-03-03T12:11:20.495Z,35.92
2024-03-03T12:12:22.716Z,30.20
2024-03-03T12:13:27.241Z,25.90
2024-03-03T12:14:30.889Z,34.75
2024-03-03T12:15:33.113Z,28.17
2024-03-03T12:16:35.330Z,27.77
2024-03-03T12:17:38.098Z,30.70
2024-03-03T12:18:40.279Z,28.88
2024-03-03T12:19:42.723Z,26.85
2024-03-03T12:20:45.600Z,29.15
2024-03-03T12:21:47.826Z,33.53
2024-03-03T12:22:51.246Z,30.55
2024-03-03T12:23:53.597Z,28.20
2024-03-03T12:24:57.017Z,32.78
2024-03-03T12:26:03.255Z,30.35
2024-03-03T12:27:08.184Z,35.85
2024-03-03T12:28:10.888Z,31.15
2024-03-03T12:29:13.154Z,30.85
2024-03-03T12:30:21.505Z,27.52
2024-03-03T12:31:23.860Z,28.23
2024-03-03T12:32:27.889Z,26.58
2024-03-03T12:33:30.116Z,30.13
2024-03-03T12:34:32.379Z,28.52
2024-03-03T12:35:35.282Z,28.15
2024-03-03T12:36:37.540Z,29.25
2024-03-03T12:37:40.008Z,33.95
2024-03-03T12:38:43.000Z,29.85
2024-03-03T12:39:45.501Z,31.55
2024-03-03T12:40:48.426Z,33.15
2024-03-03T12:41:50.630Z,30.95
2024-03-03T12:42:53.165Z,29.10
2024-03-03T12:43:56.646Z,27.25
2024-03-03T12:45:00.486Z,30.05
2024-03-03T12:46:02.830Z,27.75
2024-03-03T12:47:12.650Z,28.55
2024-03-03T12:48:14.959Z,36.03
2024-03-03T12:49:18.469Z,28.67
2024-03-03T12:50:21.429Z,29.55
2024-03-03T12:51:23.912Z,26.55
2024-03-03T12:52:26.229Z,31.80
2024-03-03T12:53:39.311Z,33.13
2024-03-03T12:54:43.189Z,28.00
2024-03-03T12:55:45.352Z,34.50
2024-03-03T12:56:48.101Z,29.25
2024-03-03T12:57:50.784Z,31.70
2024-03-03T12:58:53.118Z,32.47
2024-03-03T12:59:56.420Z,31.65
2024-03-03T13:00:58.905Z,32.65
2024-03-03T13:02:01.782Z,34.33
2024-03-03T13:03:04.197Z,32.03
2024-03-03T13:04:12.810Z,25.15
2024-03-03T13:05:16.881Z,29.83
2024-03-03T13:06:20.258Z,33.00
2024-03-03T13:07:23.764Z,32.38
2024-03-03T13:08:26.010Z,30.67
2024-03-03T13:09:31.389Z,29.17
2024-03-03T13:10:35.392Z,31.77
2024-03-03T13:11:37.773Z,33.15
2024-03-03T13:12:40.015Z,31.55
2024-03-03T13:13:42.248Z,29.70
2024-03-03T13:14:44.778Z,32.10
2024-03-03T13:15:51.033Z,29.40
2024-03-03T13:17:05.548Z,28.65
2024-03-03T13:18:09.385Z,32.58
2024-03-03T13:19:12.724Z,32.63
2024-03-03T13:20:15.030Z,31.52
2024-03-03T13:21:17.641Z,33.25
2024-03-03T13:22:21.588Z,34.33
2024-03-03T13:23:23.971Z,28.30
2024-03-03T13:24:26.222Z,30.27
2024-03-03T13:25:28.579Z,30.92
2024-03-03T13:26:30.862Z,29.73
2024-03-03T13:27:35.885Z,27.48
2024-03-03T13:28:39.082Z,30.48
2024-03-03T13:29:41.541Z,29.15
2024-03-03T13:31:01.054Z,27.85
2024-03-03T13:32:03.859Z,29.65
2024-03-03T13:33:06.546Z,30.15
2024-03-03T13:34:08.834Z,34.67
2024-03-03T13:35:11.308Z,28.77
2024-03-03T13:36:14.070Z,32.58